EGAE/LDY METAR and TAF weather

Enter ICAO airport designator
Station Type Date Time Source
EGAE METAR 2018/12/12 20:50 UTC NOAA

EGAE 122050Z 15015G25KT 7000 -SHRA FEW008 BKN017 10/07 Q1008


Station Type Date Time Source
EGAE Decoded METAR 2018/12/12 20:50 UTC NOAA

Eglinton / Londonderr, United Kingdom (EGAE) 55-03N 007-09W
Dec 12, 2018 - 03:50 PM EST / 2018.12.12 2050 UTC
Wind: from the SSE (150 degrees) at 17 MPH (15 KT) gusting to 29 MPH (25 KT):0
Visibility: 4 mile(s):0
Sky conditions: mostly cloudy
Weather: light rain showers
Temperature: 50 F (10 C)
Dew Point: 44 F (7 C)
Relative Humidity: 81%
Pressure (altimeter): 29.77 in. Hg (1008 hPa)
ob: EGAE 122050Z 15015G25KT 7000 -SHRA FEW008 BKN017 10/07 Q1008
cycle: 21

Station Type Date Time Source
EGAE TAF UTC NOAA

Error!


Example: see airport list